METAR Data
IDs: Format: Raw Decoded Include TAF

Data at: 2003 UTC 26 Sep 2021

VTSG 261900Z 00000KT 9999 FEW020 23/23 Q1009 NOSIG